TimeMST,TemperatureF,Dew PointF,Humidity,Sea Level PressureIn,VisibilityMPH,Wind Direction,Wind SpeedMPH,Gust SpeedMPH,PrecipitationIn,Events,Conditions,WindDirDegrees,DateUTC
12:56 AM,-0.0,-4.0,83,30.51,-9999.0,Calm,Calm,-,N/A,,Unknown,0,2013-02-28 07:56:00
1:56 AM,-5.1,-9.0,83,30.53,-9999.0,WNW,3.5,-,N/A,,Unknown,300,2013-02-28 08:56:00
2:56 AM,-7.1,-11.9,79,30.52,-9999.0,Calm,Calm,-,N/A,,Unknown,0,2013-02-28 09:56:00
3:56 AM,-6.0,-11.0,79,30.55,-9999.0,Calm,Calm,-,N/A,,Unknown,0,2013-02-28 10:56:00
4:56 AM,-2.9,-7.1,82,30.54,-9999.0,Calm,Calm,-,N/A,,Unknown,0,2013-02-28 11:56:00
5:56 AM,1.0,-4.0,79,30.55,-9999.0,Calm,Calm,-,N/A,,Unknown,0,2013-02-28 12:56:00
6:56 AM,1.9,-0.9,88,30.58,-9999.0,Calm,Calm,-,N/A,,Unknown,0,2013-02-28 13:56:00
7:56 AM,5.0,1.0,84,30.60,-9999.0,Calm,Calm,-,0.01,,Unknown,0,2013-02-28 14:56:00
8:56 AM,9.0,6.1,88,30.57,-9999.0,Calm,Calm,-,0.01,,Unknown,0,2013-02-28 15:56:00
9:56 AM,10.9,6.1,81,30.55,-9999.0,Variable,3.5,-,N/A,,Unknown,0,2013-02-28 16:56:00
10:56 AM,14.0,9.0,80,30.55,-9999.0,East,4.6,-,0.01,,Unknown,80,2013-02-28 17:56:00
11:56 AM,19.9,14.0,78,30.50,-9999.0,Variable,3.5,-,N/A,,Unknown,0,2013-02-28 18:56:00
12:56 PM,21.9,15.1,75,30.50,-9999.0,Variable,3.5,-,N/A,,Unknown,0,2013-02-28 19:56:00
1:56 PM,23.0,15.1,72,30.53,-9999.0,Variable,4.6,-,0.01,,Unknown,0,2013-02-28 20:56:00
2:56 PM,25.0,14.0,63,30.55,-9999.0,Variable,4.6,-,N/A,,Unknown,0,2013-02-28 21:56:00
3:56 PM,24.1,12.9,62,30.55,-9999.0,WNW,6.9,-,N/A,,Unknown,290,2013-02-28 22:56:00
4:56 PM,21.9,14.0,72,30.56,-9999.0,Variable,3.5,-,N/A,,Unknown,0,2013-02-28 23:56:00
5:56 PM,19.0,12.0,74,30.58,-9999.0,Calm,Calm,-,N/A,,Unknown,0,2013-03-01 00:56:00
6:56 PM,18.0,12.0,78,30.60,-9999.0,Calm,Calm,-,N/A,,Unknown,0,2013-03-01 01:56:00
7:56 PM,18.0,12.9,81,30.58,-9999.0,Calm,Calm,-,N/A,,Unknown,0,2013-03-01 02:56:00
8:56 PM,18.0,12.9,81,30.55,-9999.0,Calm,Calm,-,N/A,,Unknown,0,2013-03-01 03:56:00
9:56 PM,18.0,12.9,81,30.56,-9999.0,Calm,Calm,-,N/A,,Unknown,0,2013-03-01 04:56:00
10:56 PM,17.1,14.0,88,30.55,-9999.0,Calm,Calm,-,0.01,,Unknown,0,2013-03-01 05:56:00
11:56 PM,16.0,12.9,88,30.51,-9999.0,Calm,Calm,-,N/A,,Unknown,0,2013-03-01 06:56:00